createdAt,value
2023-01-23T00:00:03.472Z,991.44
2023-01-23T00:01:03.377Z,991.46
2023-01-23T00:02:03.435Z,991.54
2023-01-23T00:03:03.292Z,991.44
2023-01-23T00:04:03.373Z,991.33
2023-01-23T00:05:03.168Z,991.54
2023-01-23T00:06:03.209Z,991.38
2023-01-23T00:07:03.099Z,991.46
2023-01-23T00:08:03.058Z,991.41
2023-01-23T00:09:03.079Z,991.35
2023-01-23T00:10:02.931Z,991.30
2023-01-23T00:11:03.866Z,991.35
2023-01-23T00:12:03.788Z,991.33
2023-01-23T00:13:03.661Z,991.48
2023-01-23T00:14:03.584Z,991.51
2023-01-23T00:15:06.732Z,991.38
2023-01-23T00:16:03.571Z,991.41
2023-01-23T00:17:03.448Z,991.41
2023-01-23T00:18:03.319Z,991.33
2023-01-23T00:19:03.247Z,991.51
2023-01-23T00:20:03.185Z,991.46
2023-01-23T00:21:03.111Z,991.48
2023-01-23T00:22:03.165Z,991.54
2023-01-23T00:23:03.363Z,991.54
2023-01-23T00:24:03.201Z,991.54
2023-01-23T00:25:03.139Z,991.41
2023-01-23T00:26:03.052Z,991.44
2023-01-23T00:27:03.050Z,991.46
2023-01-23T00:28:03.837Z,991.41
2023-01-23T00:29:03.979Z,991.65
2023-01-23T00:30:03.676Z,991.57
2023-01-23T00:31:04.350Z,991.51
2023-01-23T00:32:03.824Z,991.44
2023-01-23T00:33:03.759Z,991.46
2023-01-23T00:34:03.720Z,991.51
2023-01-23T00:35:03.635Z,991.38
2023-01-23T00:36:03.554Z,991.51
2023-01-23T00:37:03.497Z,991.62
2023-01-23T00:38:03.540Z,991.51
2023-01-23T00:39:03.428Z,991.54
2023-01-23T00:40:03.392Z,991.62
2023-01-23T00:41:03.121Z,991.44
2023-01-23T00:42:02.990Z,991.41
2023-01-23T00:43:02.995Z,991.57
2023-01-23T00:44:03.860Z,991.46
2023-01-23T00:45:03.769Z,991.65
2023-01-23T00:46:03.882Z,991.57
2023-01-23T00:47:03.602Z,991.48
2023-01-23T00:48:03.493Z,991.57
2023-01-23T00:49:03.687Z,991.57
2023-01-23T00:50:03.440Z,991.62
2023-01-23T00:51:03.479Z,991.54
2023-01-23T00:52:03.435Z,991.57
2023-01-23T00:53:03.394Z,991.48
2023-01-23T00:54:03.146Z,991.62
2023-01-23T00:55:03.111Z,991.44
2023-01-23T00:56:03.093Z,991.51
2023-01-23T00:57:02.976Z,991.57
2023-01-23T00:58:02.915Z,991.51
2023-01-23T00:59:03.856Z,991.68
2023-01-23T01:00:02.868Z,991.68
2023-01-23T01:01:03.832Z,991.51
2023-01-23T01:02:03.827Z,991.62
2023-01-23T01:03:03.434Z,991.73
2023-01-23T01:04:03.339Z,991.71
2023-01-23T01:05:03.289Z,991.76
2023-01-23T01:06:03.158Z,991.76
2023-01-23T01:07:03.037Z,991.68
2023-01-23T01:08:03.120Z,991.87
2023-01-23T01:09:03.035Z,991.87
2023-01-23T01:10:03.270Z,991.73
2023-01-23T01:11:03.113Z,991.76
2023-01-23T01:12:03.007Z,991.85
2023-01-23T01:13:03.914Z,991.82
2023-01-23T01:14:03.154Z,991.82
2023-01-23T01:15:03.058Z,991.93
2023-01-23T01:16:03.102Z,991.85
2023-01-23T01:17:03.202Z,992.04
2023-01-23T01:18:03.014Z,991.90
2023-01-23T01:19:03.054Z,991.96
2023-01-23T01:20:03.875Z,991.93
2023-01-23T01:21:03.783Z,991.90
2023-01-23T01:22:03.667Z,991.87
2023-01-23T01:23:03.600Z,992.01
2023-01-23T01:24:03.587Z,992.01
2023-01-23T01:25:03.452Z,992.01
2023-01-23T01:26:03.387Z,991.96
2023-01-23T01:27:03.529Z,991.87
2023-01-23T01:28:03.492Z,991.93
2023-01-23T01:29:03.376Z,992.10
2023-01-23T01:30:03.224Z,991.98
2023-01-23T01:31:03.319Z,992.07
2023-01-23T01:32:03.363Z,991.96
2023-01-23T01:33:03.246Z,992.04
2023-01-23T01:34:03.259Z,991.93
2023-01-23T01:35:03.127Z,992.01
2023-01-23T01:36:03.081Z,992.01
2023-01-23T01:37:03.042Z,992.07
2023-01-23T01:38:02.906Z,991.96
2023-01-23T01:39:03.857Z,991.90
2023-01-23T01:40:02.909Z,992.04
2023-01-23T01:41:03.909Z,991.98
2023-01-23T01:42:03.849Z,992.07
2023-01-23T01:43:03.807Z,992.18
2023-01-23T01:44:03.680Z,992.01
2023-01-23T01:45:03.685Z,992.12
2023-01-23T01:46:03.572Z,992.12
2023-01-23T01:47:03.453Z,992.18
2023-01-23T01:48:03.544Z,992.18
2023-01-23T01:49:03.598Z,992.21
2023-01-23T01:50:03.518Z,992.12
2023-01-23T01:51:03.422Z,992.04
2023-01-23T01:52:03.447Z,992.15
2023-01-23T01:53:03.292Z,992.01
2023-01-23T01:54:03.175Z,992.18
2023-01-23T01:55:03.170Z,992.04
2023-01-23T01:56:03.088Z,992.24
2023-01-23T01:57:03.064Z,992.15
2023-01-23T01:58:03.046Z,992.10
2023-01-23T01:59:03.087Z,992.18
2023-01-23T02:00:03.133Z,992.24
2023-01-23T02:01:03.153Z,992.18
2023-01-23T02:02:03.181Z,992.26
2023-01-23T02:03:03.137Z,992.21
2023-01-23T02:04:03.077Z,992.10
2023-01-23T02:05:03.074Z,992.07
2023-01-23T02:06:02.974Z,992.18
2023-01-23T02:07:02.997Z,992.24
2023-01-23T02:08:02.936Z,992.24
2023-01-23T02:09:02.953Z,992.21
2023-01-23T02:10:03.815Z,992.21
2023-01-23T02:11:03.874Z,992.29
2023-01-23T02:12:03.793Z,992.15
2023-01-23T02:13:03.664Z,992.18
2023-01-23T02:14:03.562Z,992.32
2023-01-23T02:15:03.621Z,992.29
2023-01-23T02:16:03.822Z,992.29
2023-01-23T02:17:03.738Z,992.26
2023-01-23T02:18:03.829Z,992.40
2023-01-23T02:19:03.740Z,992.35
2023-01-23T02:20:03.865Z,992.24
2023-01-23T02:21:03.755Z,992.35
2023-01-23T02:22:03.714Z,992.29
2023-01-23T02:23:03.666Z,992.26
2023-01-23T02:24:03.599Z,992.40
2023-01-23T02:25:03.606Z,992.18
2023-01-23T02:26:03.725Z,992.29
2023-01-23T02:27:03.592Z,992.21
2023-01-23T02:28:03.569Z,992.24
2023-01-23T02:29:03.361Z,992.32
2023-01-23T02:30:03.323Z,992.35
2023-01-23T02:31:03.422Z,992.35
2023-01-23T02:32:03.277Z,992.35
2023-01-23T02:33:03.094Z,992.26
2023-01-23T02:34:02.996Z,992.35
2023-01-23T02:35:02.939Z,992.35
2023-01-23T02:36:02.957Z,992.43
2023-01-23T02:37:02.937Z,992.49
2023-01-23T02:38:03.868Z,992.35
2023-01-23T02:39:03.818Z,992.24
2023-01-23T02:40:03.735Z,992.32
2023-01-23T02:41:03.596Z,992.32
2023-01-23T02:42:03.575Z,992.26
2023-01-23T02:43:03.517Z,992.10
2023-01-23T02:44:03.449Z,992.24
2023-01-23T02:45:03.398Z,992.38
2023-01-23T02:46:03.533Z,992.32
2023-01-23T02:47:03.334Z,992.18
2023-01-23T02:48:03.202Z,992.29
2023-01-23T02:49:03.191Z,992.32
2023-01-23T02:50:03.181Z,992.43
2023-01-23T02:51:03.292Z,992.32
2023-01-23T02:52:03.165Z,992.29
2023-01-23T02:53:03.087Z,992.38
2023-01-23T02:54:03.049Z,992.29
2023-01-23T02:55:02.904Z,992.38
2023-01-23T02:56:03.811Z,992.49
2023-01-23T02:57:03.845Z,992.40
2023-01-23T02:58:03.749Z,992.40
2023-01-23T02:59:03.612Z,992.40
2023-01-23T03:00:03.607Z,992.46
2023-01-23T03:01:03.589Z,992.49
2023-01-23T03:02:03.513Z,992.52
2023-01-23T03:03:03.348Z,992.54
2023-01-23T03:04:03.237Z,992.52
2023-01-23T03:05:03.287Z,992.52
2023-01-23T03:06:03.336Z,992.60
2023-01-23T03:07:03.253Z,992.46
2023-01-23T03:08:03.130Z,992.38
2023-01-23T03:09:03.279Z,992.46
2023-01-23T03:10:03.210Z,992.35
2023-01-23T03:11:03.077Z,992.46
2023-01-23T03:12:03.043Z,992.49
2023-01-23T03:13:03.868Z,992.46
2023-01-23T03:14:02.899Z,992.46
2023-01-23T03:15:03.837Z,992.46
2023-01-23T03:16:03.965Z,992.35
2023-01-23T03:17:02.973Z,992.35
2023-01-23T03:18:02.932Z,992.46
2023-01-23T03:19:03.800Z,992.49
2023-01-23T03:20:03.769Z,992.43
2023-01-23T03:21:03.852Z,992.60
2023-01-23T03:22:03.945Z,992.54
2023-01-23T03:23:03.781Z,992.52
2023-01-23T03:24:03.705Z,992.63
2023-01-23T03:25:03.573Z,992.43
2023-01-23T03:26:03.514Z,992.63
2023-01-23T03:27:03.483Z,992.68
2023-01-23T03:28:03.440Z,992.46
2023-01-23T03:29:03.335Z,992.66
2023-01-23T03:30:03.420Z,992.43
2023-01-23T03:31:03.415Z,992.49
2023-01-23T03:32:03.537Z,992.38
2023-01-23T03:33:03.536Z,992.63
2023-01-23T03:34:03.460Z,992.35
2023-01-23T03:35:03.362Z,992.40
2023-01-23T03:36:03.207Z,992.52
2023-01-23T03:37:03.321Z,992.43
2023-01-23T03:38:03.271Z,992.49
2023-01-23T03:39:03.274Z,992.40
2023-01-23T03:40:03.356Z,992.49
2023-01-23T03:41:03.267Z,992.54
2023-01-23T03:42:03.120Z,992.57
2023-01-23T03:43:03.116Z,992.49
2023-01-23T03:44:03.098Z,992.32
2023-01-23T03:45:03.094Z,992.49
2023-01-23T03:46:03.237Z,992.57
2023-01-23T03:47:03.003Z,992.54
2023-01-23T03:48:03.051Z,992.46
2023-01-23T03:49:02.898Z,992.57
2023-01-23T03:50:02.892Z,992.63
2023-01-23T03:51:02.969Z,992.49
2023-01-23T03:52:03.855Z,992.52
2023-01-23T03:53:03.850Z,992.52
2023-01-23T03:54:03.749Z,992.43
2023-01-23T03:55:03.833Z,992.52
2023-01-23T03:56:03.777Z,992.52
2023-01-23T03:57:03.704Z,992.46
2023-01-23T03:58:03.661Z,992.43
2023-01-23T03:59:03.642Z,992.49
2023-01-23T04:00:03.646Z,992.52
2023-01-23T04:01:03.846Z,992.40
2023-01-23T04:02:03.695Z,992.52
2023-01-23T04:03:03.698Z,992.52
2023-01-23T04:04:03.576Z,992.54
2023-01-23T04:05:03.563Z,992.63
2023-01-23T04:06:03.504Z,992.49
2023-01-23T04:07:03.417Z,992.57
2023-01-23T04:08:03.473Z,992.46
2023-01-23T04:09:03.474Z,992.65
2023-01-23T04:10:03.383Z,992.60
2023-01-23T04:11:03.350Z,992.60
2023-01-23T04:12:03.313Z,992.43
2023-01-23T04:13:03.333Z,992.46
2023-01-23T04:14:03.183Z,992.43
2023-01-23T04:15:03.143Z,992.40
2023-01-23T04:16:03.069Z,992.43
2023-01-23T04:17:02.916Z,992.46
2023-01-23T04:18:02.909Z,992.43
2023-01-23T04:19:03.835Z,992.43
2023-01-23T04:20:03.784Z,992.52
2023-01-23T04:21:03.702Z,992.54
2023-01-23T04:22:03.765Z,992.60
2023-01-23T04:23:03.862Z,992.49
2023-01-23T04:24:03.704Z,992.35
2023-01-23T04:25:03.746Z,992.60
2023-01-23T04:26:03.787Z,992.54
2023-01-23T04:27:03.718Z,992.60
2023-01-23T04:28:03.766Z,992.38
2023-01-23T04:29:03.682Z,992.57
2023-01-23T04:30:03.759Z,992.57
2023-01-23T04:31:03.904Z,992.57
2023-01-23T04:32:03.667Z,992.57
2023-01-23T04:33:03.592Z,992.65
2023-01-23T04:34:03.491Z,992.57
2023-01-23T04:35:03.411Z,992.65
2023-01-23T04:36:03.322Z,992.65
2023-01-23T04:37:03.255Z,992.60
2023-01-23T04:38:03.188Z,992.65
2023-01-23T04:39:03.062Z,992.68
2023-01-23T04:40:03.064Z,992.74
2023-01-23T04:41:02.905Z,992.74
2023-01-23T04:42:03.911Z,992.68
2023-01-23T04:43:03.808Z,992.63
2023-01-23T04:44:03.713Z,992.77
2023-01-23T04:45:03.722Z,992.79
2023-01-23T04:46:03.737Z,992.74
2023-01-23T04:47:03.687Z,992.65
2023-01-23T04:48:03.580Z,992.63
2023-01-23T04:49:03.532Z,992.82
2023-01-23T04:50:03.479Z,992.68
2023-01-23T04:51:03.602Z,992.68
2023-01-23T04:52:03.776Z,992.79
2023-01-23T04:53:03.632Z,992.74
2023-01-23T04:54:03.675Z,992.85
2023-01-23T04:55:03.636Z,992.88
2023-01-23T04:56:03.519Z,992.79
2023-01-23T04:57:03.523Z,992.88
2023-01-23T04:58:03.374Z,992.85
2023-01-23T04:59:03.323Z,992.89
2023-01-23T05:00:03.580Z,992.71
2023-01-23T05:01:03.820Z,992.77
2023-01-23T05:02:03.492Z,992.85
2023-01-23T05:03:03.415Z,992.92
2023-01-23T05:04:03.408Z,992.79
2023-01-23T05:05:03.374Z,992.89
2023-01-23T05:06:03.396Z,992.95
2023-01-23T05:07:03.346Z,993.18
2023-01-23T05:08:03.287Z,992.92
2023-01-23T05:09:03.258Z,992.98
2023-01-23T05:10:03.216Z,993.15
2023-01-23T05:11:03.196Z,992.85
2023-01-23T05:12:03.139Z,993.09
2023-01-23T05:13:03.156Z,992.95
2023-01-23T05:14:03.116Z,993.04
2023-01-23T05:15:03.158Z,992.92
2023-01-23T05:16:03.164Z,993.04
2023-01-23T05:17:03.122Z,993.04
2023-01-23T05:18:03.150Z,993.09
2023-01-23T05:19:03.501Z,993.04
2023-01-23T05:20:03.566Z,993.18
2023-01-23T05:21:03.551Z,993.09
2023-01-23T05:22:03.462Z,992.98
2023-01-23T05:23:03.432Z,993.09
2023-01-23T05:24:03.482Z,993.15
2023-01-23T05:25:03.656Z,993.28
2023-01-23T05:26:03.658Z,993.04
2023-01-23T05:27:03.717Z,993.09
2023-01-23T05:28:03.677Z,993.06
2023-01-23T05:29:03.682Z,993.12
2023-01-23T05:30:03.662Z,993.15
2023-01-23T05:31:03.952Z,993.26
2023-01-23T05:32:03.588Z,993.18
2023-01-23T05:33:03.608Z,993.09
2023-01-23T05:34:03.465Z,993.28
2023-01-23T05:35:03.387Z,993.20
2023-01-23T05:36:03.427Z,993.20
2023-01-23T05:37:03.449Z,993.12
2023-01-23T05:38:03.414Z,993.12
2023-01-23T05:39:03.351Z,993.15
2023-01-23T05:40:03.328Z,993.28
2023-01-23T05:41:03.178Z,993.09
2023-01-23T05:42:03.173Z,993.15
2023-01-23T05:43:03.139Z,993.15
2023-01-23T05:44:03.038Z,993.31
2023-01-23T05:45:02.944Z,993.18
2023-01-23T05:46:03.126Z,993.23
2023-01-23T05:47:03.849Z,993.06
2023-01-23T05:48:03.835Z,993.31
2023-01-23T05:49:03.751Z,993.28
2023-01-23T05:50:03.802Z,993.31
2023-01-23T05:51:03.880Z,993.23
2023-01-23T05:52:03.705Z,993.26
2023-01-23T05:53:03.615Z,993.28
2023-01-23T05:54:03.776Z,993.33
2023-01-23T05:55:03.755Z,993.36
2023-01-23T05:56:03.614Z,993.28
2023-01-23T05:57:03.721Z,993.31
2023-01-23T05:58:03.617Z,993.39
2023-01-23T05:59:03.495Z,993.26
2023-01-23T06:00:03.775Z,993.31
2023-01-23T06:01:03.605Z,993.31
2023-01-23T06:02:03.550Z,993.20
2023-01-23T06:03:03.436Z,993.23
2023-01-23T06:04:03.552Z,993.31
2023-01-23T06:05:03.583Z,993.28
2023-01-23T06:06:03.382Z,993.42
2023-01-23T06:07:03.533Z,993.39
2023-01-23T06:08:03.453Z,993.36
2023-01-23T06:09:03.532Z,993.33
2023-01-23T06:10:03.369Z,993.47
2023-01-23T06:11:03.368Z,993.26
2023-01-23T06:12:03.286Z,993.33
2023-01-23T06:13:03.256Z,993.33
2023-01-23T06:14:03.328Z,993.18
2023-01-23T06:15:03.269Z,993.31
2023-01-23T06:16:03.250Z,993.18
2023-01-23T06:17:03.209Z,993.53
2023-01-23T06:18:03.390Z,993.36
2023-01-23T06:19:03.247Z,993.47
2023-01-23T06:20:03.154Z,993.56
2023-01-23T06:21:03.149Z,993.47
2023-01-23T06:22:03.091Z,993.56
2023-01-23T06:23:03.040Z,993.64
2023-01-23T06:24:02.888Z,993.56
2023-01-23T06:25:02.904Z,993.53
2023-01-23T06:26:02.988Z,993.58
2023-01-23T06:27:03.845Z,993.53
2023-01-23T06:28:02.879Z,993.61
2023-01-23T06:29:03.856Z,993.61
2023-01-23T06:30:03.002Z,993.70
2023-01-23T06:31:04.291Z,993.58
2023-01-23T06:32:03.795Z,993.75
2023-01-23T06:33:03.856Z,993.67
2023-01-23T06:34:03.721Z,993.75
2023-01-23T06:35:03.581Z,993.81
2023-01-23T06:36:03.639Z,993.89
2023-01-23T06:37:03.599Z,993.72
2023-01-23T06:39:03.445Z,993.75
2023-01-23T06:40:03.292Z,993.81
2023-01-23T06:41:03.216Z,993.75
2023-01-23T06:42:03.180Z,993.75
2023-01-23T06:43:03.150Z,993.84
2023-01-23T06:44:03.118Z,993.89
2023-01-23T06:45:03.055Z,993.84
2023-01-23T06:46:03.095Z,993.84
2023-01-23T06:47:02.996Z,993.95
2023-01-23T06:48:03.116Z,993.86
2023-01-23T06:49:06.482Z,993.89
2023-01-23T06:50:03.912Z,993.92
2023-01-23T06:51:03.952Z,993.89
2023-01-23T06:52:03.726Z,993.81
2023-01-23T06:53:03.670Z,993.97
2023-01-23T06:54:03.622Z,993.95
2023-01-23T06:55:03.584Z,994.03
2023-01-23T06:56:03.585Z,993.89
2023-01-23T06:57:03.569Z,994.09
2023-01-23T06:58:03.447Z,993.97
2023-01-23T06:59:03.467Z,994.11
2023-01-23T07:00:03.650Z,994.11
2023-01-23T07:01:03.328Z,994.09
2023-01-23T07:02:03.293Z,994.06
2023-01-23T07:03:03.401Z,994.11
2023-01-23T07:04:03.134Z,994.20
2023-01-23T07:05:03.042Z,994.09
2023-01-23T07:06:03.111Z,994.06
2023-01-23T07:07:03.036Z,994.03
2023-01-23T07:08:05.238Z,994.20
2023-01-23T07:09:02.987Z,994.11
2023-01-23T07:10:03.911Z,994.25
2023-01-23T07:11:03.789Z,994.20
2023-01-23T07:12:03.690Z,994.34
2023-01-23T07:13:03.689Z,994.25
2023-01-23T07:14:03.729Z,994.31
2023-01-23T07:15:03.835Z,994.17
2023-01-23T07:16:03.809Z,994.28
2023-01-23T07:17:03.690Z,994.23
2023-01-23T07:18:03.579Z,994.23
2023-01-23T07:19:03.511Z,994.36
2023-01-23T07:20:03.461Z,994.25
2023-01-23T07:21:03.319Z,994.42
2023-01-23T07:22:03.294Z,994.36
2023-01-23T07:23:05.057Z,994.36
2023-01-23T07:24:03.254Z,994.36
2023-01-23T07:25:03.191Z,994.45
2023-01-23T07:26:03.086Z,994.39
2023-01-23T07:27:03.073Z,994.36
2023-01-23T07:28:03.059Z,994.42
2023-01-23T07:29:02.908Z,994.39
2023-01-23T07:30:03.950Z,994.42
2023-01-23T07:31:04.027Z,994.42
2023-01-23T07:32:03.879Z,994.56
2023-01-23T07:33:03.866Z,994.42
2023-01-23T07:34:02.950Z,994.61
2023-01-23T07:35:03.831Z,994.59
2023-01-23T07:36:03.861Z,994.64
2023-01-23T07:37:03.413Z,994.50
2023-01-23T07:38:03.483Z,994.56
2023-01-23T07:39:03.371Z,994.48
2023-01-23T07:40:03.291Z,994.56
2023-01-23T07:41:03.248Z,994.69
2023-01-23T07:42:03.106Z,994.56
2023-01-23T07:43:03.021Z,994.61
2023-01-23T07:44:02.948Z,994.64
2023-01-23T07:45:03.016Z,994.56
2023-01-23T07:46:02.925Z,994.59
2023-01-23T07:47:02.902Z,994.69
2023-01-23T07:48:02.918Z,994.53
2023-01-23T07:49:02.901Z,994.77
2023-01-23T07:50:02.903Z,994.61
2023-01-23T07:51:04.009Z,994.69
2023-01-23T07:52:02.875Z,994.56
2023-01-23T07:53:03.860Z,994.69
2023-01-23T07:54:03.811Z,994.61
2023-01-23T07:55:03.780Z,994.53
2023-01-23T07:56:03.662Z,994.67
2023-01-23T07:57:03.695Z,994.64
2023-01-23T07:58:03.783Z,994.69
2023-01-23T07:59:03.786Z,994.72
2023-01-23T08:00:03.778Z,994.74
2023-01-23T08:01:03.004Z,994.64
2023-01-23T08:02:02.925Z,994.56
2023-01-23T08:03:03.837Z,994.61
2023-01-23T08:04:03.915Z,994.74
2023-01-23T08:05:03.596Z,994.74
2023-01-23T08:06:03.596Z,994.71
2023-01-23T08:07:03.525Z,994.69
2023-01-23T08:08:14.138Z,994.67
2023-01-23T08:09:03.605Z,994.80
2023-01-23T08:10:03.575Z,994.80
2023-01-23T08:11:03.461Z,994.71
2023-01-23T08:12:03.365Z,994.97
2023-01-23T08:13:03.384Z,994.77
2023-01-23T08:14:03.220Z,994.85
2023-01-23T08:15:03.182Z,994.69
2023-01-23T08:16:03.280Z,994.71
2023-01-23T08:17:03.101Z,994.74
2023-01-23T08:18:03.018Z,994.85
2023-01-23T08:19:02.886Z,994.80
2023-01-23T08:20:03.839Z,994.69
2023-01-23T08:21:03.762Z,994.85
2023-01-23T08:22:03.832Z,994.71
2023-01-23T08:23:03.807Z,994.80
2023-01-23T08:24:03.891Z,994.85
2023-01-23T08:25:03.795Z,994.80
2023-01-23T08:26:03.746Z,994.88
2023-01-23T08:27:03.588Z,994.71
2023-01-23T08:28:03.584Z,994.74
2023-01-23T08:29:03.527Z,994.83
2023-01-23T08:30:03.550Z,994.74
2023-01-23T08:31:06.972Z,994.80
2023-01-23T08:32:03.763Z,994.74
2023-01-23T08:33:03.502Z,994.85
2023-01-23T08:34:03.550Z,994.80
2023-01-23T08:35:03.531Z,994.80
2023-01-23T08:36:03.408Z,994.85
2023-01-23T08:37:03.329Z,994.94
2023-01-23T08:38:03.320Z,994.82
2023-01-23T08:39:03.269Z,994.82
2023-01-23T08:40:03.112Z,994.91
2023-01-23T08:41:03.314Z,994.80
2023-01-23T08:42:02.968Z,994.94
2023-01-23T08:43:02.906Z,994.77
2023-01-23T08:44:03.823Z,994.94
2023-01-23T08:45:03.818Z,994.77
2023-01-23T08:46:03.875Z,994.82
2023-01-23T08:47:03.617Z,994.91
2023-01-23T08:48:03.584Z,994.80
2023-01-23T08:49:03.552Z,994.88
2023-01-23T08:50:03.413Z,994.74
2023-01-23T08:51:03.606Z,994.80
2023-01-23T08:52:03.418Z,994.68
2023-01-23T08:53:03.455Z,994.68
2023-01-23T08:54:03.327Z,994.68
2023-01-23T08:55:03.196Z,994.71
2023-01-23T08:56:03.241Z,994.71
2023-01-23T08:57:03.200Z,994.79
2023-01-23T08:58:03.251Z,994.91
2023-01-23T08:59:03.128Z,994.85
2023-01-23T09:00:03.047Z,994.74
2023-01-23T09:01:02.966Z,994.77
2023-01-23T09:02:03.960Z,994.71
2023-01-23T09:03:02.949Z,994.82
2023-01-23T09:04:03.847Z,994.79
2023-01-23T09:05:03.712Z,994.82
2023-01-23T09:06:03.665Z,994.82
2023-01-23T09:07:03.476Z,994.77
2023-01-23T09:08:03.369Z,994.88
2023-01-23T09:09:03.380Z,994.88
2023-01-23T09:10:03.231Z,994.79
2023-01-23T09:11:03.205Z,994.79
2023-01-23T09:12:03.204Z,994.79
2023-01-23T09:13:03.070Z,994.88
2023-01-23T09:14:02.991Z,995.02
2023-01-23T09:15:02.991Z,994.85
2023-01-23T09:16:03.999Z,994.93
2023-01-23T09:17:03.835Z,994.85
2023-01-23T09:18:03.727Z,994.90
2023-01-23T09:19:03.610Z,994.85
2023-01-23T09:20:03.583Z,994.85
2023-01-23T09:21:03.408Z,994.90
2023-01-23T09:22:03.543Z,994.82
2023-01-23T09:23:03.468Z,994.82
2023-01-23T09:24:03.508Z,994.96
2023-01-23T09:25:03.112Z,994.93
2023-01-23T09:26:03.254Z,995.02
2023-01-23T09:27:03.108Z,995.02
2023-01-23T09:28:03.112Z,995.10
2023-01-23T09:29:03.050Z,994.76
2023-01-23T09:30:02.978Z,994.99
2023-01-23T09:31:03.093Z,995.02
2023-01-23T09:32:02.920Z,994.90
2023-01-23T09:33:02.897Z,994.90
2023-01-23T09:34:02.882Z,995.13
2023-01-23T09:35:03.106Z,994.82
2023-01-23T09:36:03.092Z,994.90
2023-01-23T09:37:02.932Z,994.99
2023-01-23T09:38:03.828Z,994.93
2023-01-23T09:39:03.798Z,994.93
2023-01-23T09:40:03.850Z,994.96
2023-01-23T09:41:03.706Z,994.93
2023-01-23T09:42:03.619Z,995.01
2023-01-23T09:43:03.488Z,994.85
2023-01-23T09:44:03.537Z,994.99
2023-01-23T09:45:03.518Z,994.93
2023-01-23T09:46:03.548Z,994.88
2023-01-23T09:47:03.306Z,995.15
2023-01-23T09:48:03.175Z,994.99
2023-01-23T09:49:03.087Z,995.04
2023-01-23T09:50:03.017Z,994.99
2023-01-23T09:51:03.144Z,994.96
2023-01-23T09:52:02.959Z,995.07
2023-01-23T09:53:03.872Z,995.01
2023-01-23T09:54:03.806Z,995.04
2023-01-23T09:55:03.725Z,995.07
2023-01-23T09:56:03.662Z,994.93
2023-01-23T09:57:03.653Z,995.01
2023-01-23T09:58:03.661Z,994.85
2023-01-23T09:59:03.565Z,994.90
2023-01-23T10:00:03.514Z,994.99
2023-01-23T10:01:03.612Z,994.74
2023-01-23T10:02:03.584Z,994.79
2023-01-23T10:03:03.555Z,994.74
2023-01-23T10:04:03.513Z,994.79
2023-01-23T10:05:03.476Z,994.93
2023-01-23T10:06:03.358Z,994.79
2023-01-23T10:07:03.178Z,994.93
2023-01-23T10:08:03.236Z,994.71
2023-01-23T10:09:03.054Z,994.68
2023-01-23T10:10:03.350Z,994.87
2023-01-23T10:11:02.883Z,994.79
2023-01-23T10:12:03.870Z,994.96
2023-01-23T10:13:02.987Z,994.96
2023-01-23T10:14:03.243Z,994.96
2023-01-23T10:15:02.924Z,994.87
2023-01-23T10:16:03.891Z,994.90
2023-01-23T10:17:03.933Z,995.01
2023-01-23T10:18:03.882Z,994.85
2023-01-23T10:19:03.788Z,995.07
2023-01-23T10:20:03.755Z,994.90
2023-01-23T10:21:03.648Z,994.87
2023-01-23T10:22:03.670Z,994.85
2023-01-23T10:23:03.420Z,995.01
2023-01-23T10:24:03.355Z,994.93
2023-01-23T10:25:03.416Z,994.71
2023-01-23T10:26:03.287Z,994.90
2023-01-23T10:27:03.201Z,994.96
2023-01-23T10:28:03.094Z,994.79
2023-01-23T10:29:03.042Z,994.99
2023-01-23T10:30:03.129Z,995.01
2023-01-23T10:31:03.258Z,994.99
2023-01-23T10:32:03.007Z,994.96
2023-01-23T10:33:02.975Z,994.87
2023-01-23T10:34:05.704Z,994.93
2023-01-23T10:35:03.897Z,995.01
2023-01-23T10:36:03.690Z,994.96
2023-01-23T10:37:03.620Z,995.04
2023-01-23T10:38:03.712Z,995.01
2023-01-23T10:39:03.609Z,994.90
2023-01-23T10:40:03.646Z,994.90
2023-01-23T10:41:03.476Z,995.01
2023-01-23T10:42:03.581Z,995.01
2023-01-23T10:43:03.261Z,994.84
2023-01-23T10:44:03.287Z,994.98
2023-01-23T10:45:03.227Z,995.04
2023-01-23T10:46:03.259Z,994.90
2023-01-23T10:47:03.080Z,994.96
2023-01-23T10:48:09.208Z,994.96
2023-01-23T10:49:02.950Z,994.84
2023-01-23T10:50:03.885Z,994.90
2023-01-23T10:51:03.824Z,994.84
2023-01-23T10:52:03.660Z,994.93
2023-01-23T10:53:03.665Z,994.96
2023-01-23T10:54:07.128Z,995.04
2023-01-23T10:55:03.543Z,995.07
2023-01-23T10:56:03.405Z,995.04
2023-01-23T10:57:03.461Z,994.82
2023-01-23T10:58:03.154Z,994.93
2023-01-23T10:59:03.201Z,994.96
2023-01-23T11:00:03.269Z,994.87
2023-01-23T11:01:03.257Z,994.87
2023-01-23T11:02:03.245Z,994.93
2023-01-23T11:03:03.205Z,994.93
2023-01-23T11:04:02.959Z,994.98
2023-01-23T11:05:02.851Z,995.01
2023-01-23T11:06:03.843Z,994.96
2023-01-23T11:07:03.704Z,994.93
2023-01-23T11:08:03.785Z,994.98
2023-01-23T11:09:03.670Z,995.01
2023-01-23T11:10:03.611Z,994.93
2023-01-23T11:11:03.641Z,995.09
2023-01-23T11:12:03.564Z,994.98
2023-01-23T11:13:03.636Z,995.09
2023-01-23T11:14:03.617Z,995.07
2023-01-23T11:15:03.578Z,994.96
2023-01-23T11:16:03.724Z,995.12
2023-01-23T11:17:03.516Z,995.12
2023-01-23T11:18:03.429Z,995.12
2023-01-23T11:19:03.519Z,995.12
2023-01-23T11:20:03.483Z,995.10
2023-01-23T11:21:03.346Z,995.10
2023-01-23T11:22:03.287Z,995.15
2023-01-23T11:23:03.322Z,994.96
2023-01-23T11:24:04.321Z,995.07
2023-01-23T11:25:03.230Z,995.10
2023-01-23T11:26:03.121Z,995.10
2023-01-23T11:27:03.004Z,994.98
2023-01-23T11:28:02.970Z,995.10
2023-01-23T11:29:03.828Z,995.01
2023-01-23T11:30:03.756Z,995.07
2023-01-23T11:31:15.839Z,995.12
2023-01-23T11:32:03.832Z,995.04
2023-01-23T11:33:03.704Z,995.07
2023-01-23T11:34:03.639Z,995.04
2023-01-23T11:35:03.526Z,994.96
2023-01-23T11:36:03.459Z,994.87
2023-01-23T11:37:03.610Z,994.79
2023-01-23T11:38:03.626Z,994.87
2023-01-23T11:39:03.721Z,994.82
2023-01-23T11:40:03.576Z,994.84
2023-01-23T11:41:03.430Z,994.82
2023-01-23T11:42:03.388Z,994.84
2023-01-23T11:43:03.353Z,994.76
2023-01-23T11:44:04.738Z,994.84
2023-01-23T11:45:03.121Z,994.95
2023-01-23T11:46:03.153Z,994.76
2023-01-23T11:47:03.054Z,994.76
2023-01-23T11:48:02.982Z,994.79
2023-01-23T11:49:03.031Z,994.76
2023-01-23T11:50:02.974Z,994.84
2023-01-23T11:51:03.008Z,994.79
2023-01-23T11:52:03.846Z,994.73
2023-01-23T11:53:03.864Z,994.70
2023-01-23T11:54:03.913Z,994.84
2023-01-23T11:55:03.775Z,994.84
2023-01-23T11:56:03.583Z,994.98
2023-01-23T11:57:03.598Z,994.79
2023-01-23T11:58:03.605Z,994.79
2023-01-23T11:59:03.530Z,994.68
2023-01-23T12:00:03.452Z,994.87
2023-01-23T12:01:03.557Z,994.68
2023-01-23T12:02:04.281Z,994.87
2023-01-23T12:03:03.489Z,994.66
2023-01-23T12:04:03.412Z,994.68
2023-01-23T12:05:03.151Z,994.70
2023-01-23T12:07:03.207Z,994.57
2023-01-23T12:08:03.143Z,994.43
2023-01-23T12:09:03.130Z,994.68
2023-01-23T12:10:03.044Z,994.54
2023-01-23T12:11:02.930Z,994.63
2023-01-23T12:12:03.867Z,994.63
2023-01-23T12:13:03.801Z,994.60
2023-01-23T12:14:03.803Z,994.66
2023-01-23T12:15:03.796Z,994.66
2023-01-23T12:16:03.909Z,994.90
2023-01-23T12:17:03.693Z,994.60
2023-01-23T12:18:03.192Z,994.52
2023-01-23T12:19:03.103Z,994.52
2023-01-23T12:20:03.149Z,994.68
2023-01-23T12:21:03.020Z,994.66
2023-01-23T12:22:02.876Z,994.68
2023-01-23T12:23:02.914Z,994.49
2023-01-23T12:24:03.866Z,994.57
2023-01-23T12:25:03.706Z,994.63
2023-01-23T12:26:03.635Z,994.57
2023-01-23T12:27:03.511Z,994.66
2023-01-23T12:28:03.516Z,994.57
2023-01-23T12:29:03.484Z,994.52
2023-01-23T12:30:03.355Z,994.63